Latest Weather Observations for Port Lincoln Airport

IDS60801

Issued at 5:01 pm CDT Saturday 25 February 2017 (issued every 30 minutes, with the page automatically refreshed every 10 minutes)

About weather observations | Map of weather stations | Latest weather observations for SA | Other Formats
Station Details ID: 018192 Name: PORT LINCOLN AWS Lat: -34.60 Lon: 135.88 Height: 8.5 m
Data from the previous 72 hours. | See also: Recent months at Port Lincoln Airport
Date/Time
CDT
Temp
°C
App
Temp
°C
Dew
Point
°C
Rel
Hum
%
Delta-T
°C
Wind Press
QNH
hPa
Press
MSL
hPa
Rain since
9am
mm
Dir  Spd
km/h
Gust
km/h
Spd
kts
Gust
kts
25/05:00pm 21.8 17.1 12.1 54 5.4 SSE 28 35 15 19 1022.8 1022.8 0.0
25/04:30pm 21.8 16.8 10.9 50 6.0 SE 28 35 15 19 1023.1 1023.1 0.0
25/04:00pm 21.2 16.0 11.5 54 5.4 SE 30 35 16 19 1023.4 1023.4 0.0
25/03:30pm 21.8 16.8 12.1 54 5.4 SE 30 33 16 18 1023.7 1023.7 0.0
25/03:00pm 21.1 16.0 12.0 56 5.1 SE 30 37 16 20 1024.2 1024.2 0.0
25/02:30pm 21.0 15.9 11.9 56 5.1 SE 30 39 16 21 1024.6 1024.6 0.0
25/02:00pm 21.0 16.3 11.9 56 5.1 SE 28 35 15 19 1024.8 1024.8 0.0
25/01:30pm 21.1 16.5 12.3 57 4.9 SE 28 41 15 22 1025.1 1025.1 0.0
25/01:00pm 20.6 15.4 12.8 61 4.4 SE 32 41 17 22 1025.3 1025.3 0.0
25/12:30pm 20.9 15.7 11.5 55 5.2 SE 30 37 16 20 1025.7 1025.7 0.0
25/12:00pm 21.7 16.3 10.8 50 6.0 SE 30 39 16 21 1025.8 1025.8 0.0
25/11:30am 20.7 15.5 11.6 56 5.0 SE 30 41 16 22 1026.1 1026.1 0.0
25/11:00am 20.0 14.7 11.2 57 4.8 SE 30 39 16 21 1026.3 1026.3 0.0
25/10:30am 19.6 15.0 12.4 63 4.0 SE 28 35 15 19 1026.5 1026.5 0.0
25/10:00am 19.5 14.3 11.5 60 4.4 SE 30 35 16 19 1026.5 1026.5 0.0
25/09:30am 19.8 15.4 11.8 60 4.4 SE 26 35 14 19 1026.4 1026.4 0.0
25/09:00am 19.4 14.8 12.2 63 4.0 SE 28 33 15 18 1026.4 1026.4 0.0
25/08:30am 17.7 12.9 11.7 68 3.3 SE 28 35 15 19 1026.1 1026.1 0.0
25/08:00am 17.6 12.7 11.4 67 3.4 ESE 28 37 15 20 1025.8 1025.8 0.0
25/07:30am 17.5 13.2 10.9 65 3.5 SE 24 32 13 17 1025.8 1025.8 0.0
25/07:00am 17.4 12.0 11.0 66 3.4 SE 30 37 16 20 1025.7 1025.7 0.0
25/06:30am 17.4 12.9 11.4 68 3.2 SE 26 35 14 19 1025.7 1025.7 0.0
25/06:00am 17.3 11.8 10.7 65 3.5 SE 30 35 16 19 1025.4 1025.4 0.0
25/05:30am 17.2 12.5 10.8 66 3.4 ESE 26 33 14 18 1025.3 1025.3 0.0
25/05:00am 17.4 12.5 11.2 67 3.4 ESE 28 41 15 22 1025.2 1025.2 0.0
25/04:30am 17.3 12.9 11.6 69 3.1 SE 26 33 14 18 1025.1 1025.1 0.0
25/04:00am 17.3 13.2 11.3 68 3.2 SE 24 32 13 17 1025.1 1025.1 0.0
25/03:30am 17.2 12.6 11.2 68 3.2 SE 26 33 14 18 1025.1 1025.1 0.0
25/03:00am 17.3 12.3 10.9 66 3.4 SE 28 37 15 20 1025.2 1025.2 0.0
25/02:30am 17.4 12.8 11.2 67 3.3 SE 26 35 14 19 1025.5 1025.5 0.0
25/02:00am 17.4 12.5 11.2 67 3.4 SE 28 33 15 18 1025.8 1025.8 0.0
25/01:30am 17.4 11.9 10.5 64 3.7 SSE 30 37 16 20 1026.2 1026.2 0.0
25/01:00am 16.9 12.1 10.3 65 3.5 SSE 26 33 14 18 1026.7 1026.7 0.0
25/12:30am 17.8 13.6 11.1 65 3.6 SE 24 32 13 17 1026.8 1026.8 0.0
25/12:00am 17.8 12.6 10.2 61 4.0 SE 28 37 15 20 1027.0 1027.0 0.0
 
Date/Time
CDT
Temp
°C
App
Temp
°C
Dew
Point
°C
Rel
Hum
%
Delta-T
°C
Wind Press
QNH
hPa
Press
MSL
hPa
Rain since
9am
mm
Dir  Spd
km/h
Gust
km/h
Spd
kts
Gust
kts
24/11:30pm 18.0 12.2 10.9 63 3.8 SE 32 43 17 23 1027.1 1027.1 0.0
24/11:00pm 18.1 12.7 12.1 68 3.3 SE 32 39 17 21 1027.0 1027.0 0.0
24/10:30pm 18.1 13.3 11.7 66 3.5 SSE 28 35 15 19 1027.0 1027.0 0.0
24/10:00pm 18.1 13.1 12.3 69 3.2 SSE 30 37 16 20 1027.1 1027.1 0.0
24/09:30pm 18.3 13.5 11.6 65 3.6 SSE 28 37 15 20 1027.2 1027.2 0.0
24/09:00pm 18.3 13.9 11.6 65 3.6 SSE 26 32 14 17 1027.0 1027.0 0.0
24/08:30pm 18.1 13.1 11.0 63 3.8 SSE 28 33 15 18 1026.9 1026.9 0.0
24/08:00pm 18.2 13.2 11.0 63 3.9 SSE 28 35 15 19 1026.7 1026.7 0.0
24/07:30pm 18.1 13.1 11.0 63 3.8 SSE 28 35 15 19 1026.8 1026.8 0.0
24/07:00pm 18.7 13.6 10.5 59 4.4 SSE 28 35 15 19 1026.7 1026.7 0.0
24/06:30pm 18.9 13.8 10.5 58 4.5 SE 28 35 15 19 1026.6 1026.6 0.0
24/06:00pm 19.7 14.0 11.2 58 4.6 SSE 32 37 17 20 1026.6 1026.6 0.0
24/05:30pm 19.7 14.3 10.9 57 4.8 SSE 30 35 16 19 1026.4 1026.4 0.0
24/05:00pm 20.3 15.0 11.2 56 5.0 SE 30 39 16 21 1026.3 1026.3 0.0
24/04:30pm 20.0 15.0 11.0 56 4.9 SE 28 33 15 18 1026.3 1026.3 0.0
24/04:00pm 19.3 14.3 10.8 58 4.6 SSE 28 33 15 18 1026.5 1026.5 0.0
24/03:30pm 19.7 14.7 10.9 57 4.8 SE 28 33 15 18 1026.6 1026.6 0.0
24/03:00pm 20.0 16.5 11.0 56 4.9 SE 20 30 11 16 1026.8 1026.8 0.0
24/02:30pm 19.7 15.8 10.9 57 4.8 SE 22 30 12 16 1027.1 1027.1 0.0
24/02:00pm 20.2 16.4 11.1 56 5.0 SE 22 28 12 15 1027.3 1027.3 0.0
24/01:30pm 19.9 15.3 10.9 56 4.9 SE 26 35 14 19 1027.4 1027.4 0.0
24/01:00pm 21.4 17.8 11.7 54 5.4 SE 22 30 12 16 1027.4 1027.4 0.0
24/12:30pm 20.4 16.5 10.8 54 5.2 SE 22 32 12 17 1027.8 1027.8 0.0
24/12:00pm 19.9 15.3 9.8 52 5.4 SE 24 30 13 16 1027.8 1027.8 0.0
24/11:30am 19.9 15.6 10.6 55 5.0 SSE 24 32 13 17 1028.0 1028.0 0.0
24/11:00am 19.0 14.6 10.3 57 4.7 SSE 24 30 13 16 1028.0 1028.0 0.0
24/10:30am 19.1 14.9 9.6 54 5.0 SSE 22 32 12 17 1027.9 1027.9 0.0
24/10:00am 19.0 15.2 9.8 55 4.9 SSE 20 28 11 15 1027.8 1027.8 0.0
24/09:30am 18.4 13.5 10.0 58 4.4 SSE 26 30 14 16 1027.7 1027.7 0.0
24/09:00am 18.1 14.3 9.7 58 4.4 S 20 28 11 15 1027.5 1027.5 0.0
24/08:30am 17.8 12.8 9.7 59 4.2 S 26 35 14 19 1027.3 1027.3 0.0
24/08:00am 17.7 13.1 9.8 60 4.2 S 24 32 13 17 1026.9 1026.9 0.0
24/07:30am 17.3 13.7 10.0 62 3.8 SSE 19 28 10 15 1026.6 1026.6 0.0
24/07:00am 17.3 13.6 10.2 63 3.8 S 20 26 11 14 1026.3 1026.3 0.0
24/06:30am 17.3 12.8 10.0 62 3.8 SSE 24 32 13 17 1025.8 1025.8 0.0
24/06:00am 17.2 13.4 9.9 62 3.8 SE 20 24 11 13 1025.8 1025.8 0.0
24/05:30am 16.8 15.0 10.9 68 3.1 S 11 19 6 10 1025.5 1025.5 0.0
24/05:00am 16.2 14.5 11.2 72 2.7 S 11 13 6 7 1025.3 1025.3 0.0
24/04:30am 16.9 13.3 10.7 67 3.3 SSE 20 24 11 13 1025.2 1025.2 0.0
24/04:00am 16.3 12.8 11.0 71 2.8 SSE 20 24 11 13 1025.3 1025.3 0.0
24/03:30am 15.9 12.7 11.1 73 2.6 SSE 19 20 10 11 1025.0 1025.0 0.0
24/03:00am 14.1 12.8 9.9 76 2.2 SSW 7 11 4 6 1025.1 1025.1 0.0
24/02:30am 15.5 12.6 10.9 74 2.4 SSE 17 20 9 11 1025.2 1025.2 0.0
24/02:00am 13.8 12.5 10.0 78 2.0 SW 7 9 4 5 1025.4 1025.4 0.0
24/01:30am 13.9 12.2 9.9 77 2.1 SSW 9 15 5 8 1025.5 1025.5 0.0
24/01:00am 14.4 12.9 10.4 77 2.1 SSW 9 11 5 6 1025.6 1025.6 0.0
24/12:30am 13.4 11.6 9.3 76 2.1 SW 9 11 5 6 1025.6 1025.6 0.0
24/12:00am 16.4 13.5 10.9 70 2.9 SSE 17 26 9 14 1025.6 1025.6 0.0
 
Date/Time
CDT
Temp
°C
App
Temp
°C
Dew
Point
°C
Rel
Hum
%
Delta-T
°C
Wind Press
QNH
hPa
Press
MSL
hPa
Rain since
9am
mm
Dir  Spd
km/h
Gust
km/h
Spd
kts
Gust
kts
23/11:30pm 15.0 13.7 10.0 72 2.6 SSW 7 11 4 6 1025.5 1025.5 0.0
23/11:00pm 15.1 12.9 10.7 75 2.3 SW 13 19 7 10 1025.4 1025.4 0.0
23/10:30pm 14.9 13.0 10.5 75 2.3 SW 11 15 6 8 1025.2 1025.2 0.0
23/10:00pm 15.9 13.8 11.3 74 2.5 SW 13 19 7 10 1025.0 1025.0 0.0
23/09:30pm 16.0 13.5 11.0 72 2.7 SSW 15 19 8 10 1024.8 1024.8 0.0
23/09:00pm 17.0 14.1 11.1 68 3.2 SSW 17 22 9 12 1024.4 1024.4 0.0
23/08:30pm 17.6 13.9 11.4 67 3.4 S 22 30 12 16 1024.0 1024.0 0.0
23/08:00pm 18.1 13.7 11.7 66 3.5 S 26 30 14 16 1023.6 1023.6 0.0
23/07:30pm 18.3 14.0 10.9 62 4.0 S 24 30 13 16 1023.2 1023.2 0.0
23/07:00pm 18.7 14.2 11.3 62 4.0 S 26 32 14 17 1022.9 1022.9 0.0
23/06:30pm 19.1 14.6 11.4 61 4.2 S 26 32 14 17 1022.7 1022.7 0.0
23/06:00pm 20.1 15.7 11.6 58 4.7 S 26 33 14 18 1022.4 1022.4 0.0
23/05:30pm 20.3 14.9 11.0 55 5.1 S 30 35 16 19 1022.1 1022.1 0.0
23/05:00pm 20.7 15.0 11.3 55 5.2 SSE 32 41 17 22 1021.7 1021.7 0.0
23/04:30pm 21.4 16.1 11.1 52 5.7 SSE 30 37 16 20 1021.7 1021.7 0.0
23/04:00pm 21.8 16.4 10.9 50 6.0 SSE 30 37 16 20 1021.7 1021.7 0.0
23/03:30pm 21.8 16.3 10.6 49 6.1 SSE 30 37 16 20 1021.6 1021.6 0.0
23/03:00pm 22.2 16.9 9.7 45 6.7 SSE 28 35 15 19 1021.7 1021.7 0.0
23/02:30pm 23.4 18.7 10.8 45 7.0 SE 26 33 14 18 1021.9 1021.9 0.0
23/02:00pm 22.1 17.5 11.2 50 6.0 SE 26 32 14 17 1021.8 1021.8 0.0
23/01:30pm 21.2 17.0 11.0 52 5.6 SSE 24 30 13 16 1021.9 1021.9 0.0
23/01:00pm 20.7 16.9 11.1 54 5.3 SE 22 28 12 15 1021.9 1021.9 0.0
23/12:30pm 20.6 16.8 11.0 54 5.2 SE 22 28 12 15 1021.9 1021.9 0.0
23/12:00pm 21.5 17.8 10.0 48 6.2 SE 20 28 11 15 1022.0 1022.0 0.0
23/11:30am 20.8 17.4 10.6 52 5.5 SE 19 26 10 14 1021.9 1021.9 0.0
23/11:00am 20.7 17.1 10.5 52 5.5 SSE 20 26 11 14 1021.9 1021.9 0.0
23/10:30am 19.5 16.8 10.5 56 4.8 SSW 15 20 8 11 1021.8 1021.8 0.0
23/10:00am 19.4 17.3 11.2 59 4.5 SW 13 19 7 10 1021.6 1021.6 0.0
23/09:30am 18.9 16.5 11.5 62 4.0 SW 15 20 8 11 1021.3 1021.3 0.0
23/09:00am 18.3 16.7 11.6 65 3.7 SSW 11 15 6 8 1021.0 1021.0 0.0
23/08:30am 16.8 15.8 12.3 75 2.5 WSW 9 11 5 6 1020.6 1020.6 0.0
23/08:00am 14.3 13.2 13.0 92 0.7 W 11 13 6 7 1020.1 1020.1 0.0
23/07:30am 11.5 9.5 10.1 91 0.7 W 11 13 6 7 1019.5 1019.5 0.0
23/07:00am 12.0 10.1 10.6 91 0.7 W 11 13 6 7 1019.1 1019.1 0.0
23/06:30am 12.2 10.8 10.8 91 0.7 W 9 11 5 6 1018.7 1018.7 0.0
23/06:00am 11.3 8.8 9.6 89 0.9 WSW 13 15 7 8 1018.2 1018.2 0.0
23/05:30am 12.3 10.9 10.9 91 0.7 WSW 9 11 5 6 1017.9 1017.9 0.0
23/05:00am 13.1 11.5 11.5 90 0.8 WSW 11 17 6 9 1017.8 1017.8 0.0
23/04:30am 13.1 11.2 11.8 92 0.7 WSW 13 15 7 8 1017.6 1017.6 0.0
23/04:00am 13.6 11.8 12.2 91 0.8 W 13 15 7 8 1017.6 1017.6 0.0
23/03:30am 14.8 13.0 13.3 91 0.8 WSW 15 19 8 10 1017.6 1017.6 0.0
23/03:00am 15.3 13.6 13.7 90 0.9 WSW 15 19 8 10 1017.5 1017.5 0.0
23/02:30am 15.7 13.8 14.1 90 0.9 WSW 17 20 9 11 1017.5 1017.5 0.0
23/02:00am 15.3 13.8 13.2 87 1.2 W 13 15 7 8 1017.7 1017.7 0.0
23/01:30am 16.4 14.9 14.1 86 1.3 W 15 20 8 11 1017.9 1017.9 0.0
23/01:00am 16.4 15.1 14.8 90 0.9 W 15 24 8 13 1018.0 1018.0 0.0
23/12:30am 14.9 13.8 13.1 89 1.0 WNW 11 15 6 8 1018.0 1018.0 0.0
23/12:00am 14.6 13.3 12.6 88 1.1 WNW 11 13 6 7 1017.9 1017.9 0.0
 
Date/Time
CDT
Temp
°C
App
Temp
°C
Dew
Point
°C
Rel
Hum
%
Delta-T
°C
Wind Press
QNH
hPa
Press
MSL
hPa
Rain since
9am
mm
Dir  Spd
km/h
Gust
km/h
Spd
kts
Gust
kts
22/11:30pm 14.5 12.5 12.7 89 1.0 NW 15 17 8 9 1017.7 1017.7 0.0
22/11:00pm 15.3 13.8 13.0 86 1.3 WNW 13 15 7 8 1017.7 1017.7 0.0
22/10:30pm 15.9 14.6 12.6 81 1.8 W 11 13 6 7 1017.5 1017.5 0.0
22/10:00pm 17.5 15.7 13.2 76 2.4 W 15 20 8 11 1017.0 1017.0 0.0
22/09:30pm 17.4 15.3 13.5 78 2.2 W 17 22 9 12 1016.5 1016.5 0.0
22/09:00pm 17.5 15.6 13.0 75 2.5 W 15 19 8 10 1016.0 1016.0 0.0
22/08:30pm 18.3 15.1 13.2 72 2.9 W 22 32 12 17 1015.3 1015.3 0.0
22/08:00pm 18.9 14.6 13.1 69 3.3 W 28 39 15 21 1014.8 1014.8 0.0
22/07:30pm 19.9 15.4 12.7 63 4.1 WNW 28 33 15 18 1014.3 1014.3 0.0
22/07:00pm 19.6 14.8 14.0 70 3.2 WNW 32 41 17 22 1014.1 1014.1 0.0
22/06:30pm 20.4 14.2 12.6 61 4.4 WNW 37 50 20 27 1013.6 1013.6 0.0
22/06:00pm 20.6 14.1 12.8 61 4.4 WNW 39 56 21 30 1013.1 1013.1 0.0
22/05:30pm 21.7 16.4 14.1 62 4.4 WNW 35 48 19 26 1012.7 1012.7 0.0
22/05:02pm 22.3 14.6 11.4 50 6.1 WNW 43 61 23 33 1012.3 1012.3 0.0

Other Formats:

Comma delimited format used in spreadsheet applications
http://www.bom.gov.au/fwo/IDS60801/IDS60801.95661.axf

JavaScript Object Notation format (JSON) in row-major order
http://www.bom.gov.au/fwo/IDS60801/IDS60801.95661.json